sensor_id;sensor_type;location;lat;lon;timestamp;temperature;humidity
12370;DHT22;6249;52.128;9.986;2023-05-07T00:01:20;12.10;99.90
12370;DHT22;6249;52.128;9.986;2023-05-07T00:04:41;12.10;99.90
12370;DHT22;6249;52.128;9.986;2023-05-07T00:08:02;12.10;99.90
12370;DHT22;6249;52.128;9.986;2023-05-07T00:11:22;12.10;99.90
12370;DHT22;6249;52.128;9.986;2023-05-07T00:14:43;12.00;99.90
12370;DHT22;6249;52.128;9.986;2023-05-07T00:18:04;11.90;99.90
12370;DHT22;6249;52.128;9.986;2023-05-07T00:21:24;12.00;99.90
12370;DHT22;6249;52.128;9.986;2023-05-07T00:24:53;11.90;99.90
12370;DHT22;6249;52.128;9.986;2023-05-07T00:28:13;11.80;99.90
12370;DHT22;6249;52.128;9.986;2023-05-07T00:31:39;11.90;99.90
12370;DHT22;6249;52.128;9.986;2023-05-07T00:34:59;12.00;99.90
12370;DHT22;6249;52.128;9.986;2023-05-07T00:38:20;12.00;99.90
12370;DHT22;6249;52.128;9.986;2023-05-07T00:41:41;11.90;99.90
12370;DHT22;6249;52.128;9.986;2023-05-07T00:45:01;11.80;99.90
12370;DHT22;6249;52.128;9.986;2023-05-07T00:48:23;11.70;99.90
12370;DHT22;6249;52.128;9.986;2023-05-07T00:51:47;11.70;99.90
12370;DHT22;6249;52.128;9.986;2023-05-07T00:55:08;11.80;99.90
12370;DHT22;6249;52.128;9.986;2023-05-07T00:58:28;11.80;99.90
12370;DHT22;6249;52.128;9.986;2023-05-07T01:01:49;11.80;99.90
12370;DHT22;6249;52.128;9.986;2023-05-07T01:05:13;11.80;99.90
12370;DHT22;6249;52.128;9.986;2023-05-07T01:08:41;11.70;99.90
12370;DHT22;6249;52.128;9.986;2023-05-07T01:12:03;11.70;99.90
12370;DHT22;6249;52.128;9.986;2023-05-07T01:15:24;11.70;99.90
12370;DHT22;6249;52.128;9.986;2023-05-07T01:18:45;11.60;99.90
12370;DHT22;6249;52.128;9.986;2023-05-07T01:22:12;11.60;99.90
12370;DHT22;6249;52.128;9.986;2023-05-07T01:25:36;11.60;99.90
12370;DHT22;6249;52.128;9.986;2023-05-07T01:28:56;11.60;99.90
12370;DHT22;6249;52.128;9.986;2023-05-07T01:32:20;11.70;99.90
12370;DHT22;6249;52.128;9.986;2023-05-07T01:35:46;11.60;99.90
12370;DHT22;6249;52.128;9.986;2023-05-07T01:39:09;11.50;99.90
12370;DHT22;6249;52.128;9.986;2023-05-07T01:42:34;11.40;99.90
12370;DHT22;6249;52.128;9.986;2023-05-07T01:45:57;11.30;99.90
12370;DHT22;6249;52.128;9.986;2023-05-07T01:49:21;11.30;99.90
12370;DHT22;6249;52.128;9.986;2023-05-07T01:52:44;11.40;99.90
12370;DHT22;6249;52.128;9.986;2023-05-07T01:56:05;11.60;99.90
12370;DHT22;6249;52.128;9.986;2023-05-07T01:59:26;11.50;99.90
12370;DHT22;6249;52.128;9.986;2023-05-07T02:02:46;11.40;99.90
12370;DHT22;6249;52.128;9.986;2023-05-07T02:06:07;11.50;99.90
12370;DHT22;6249;52.128;9.986;2023-05-07T02:09:27;11.50;99.90
12370;DHT22;6249;52.128;9.986;2023-05-07T02:12:48;11.30;99.90
12370;DHT22;6249;52.128;9.986;2023-05-07T02:16:09;11.50;99.90
12370;DHT22;6249;52.128;9.986;2023-05-07T02:19:29;11.20;99.90
12370;DHT22;6249;52.128;9.986;2023-05-07T02:22:52;11.30;99.90
12370;DHT22;6249;52.128;9.986;2023-05-07T02:26:12;11.30;99.90
12370;DHT22;6249;52.128;9.986;2023-05-07T02:29:37;11.30;99.90
12370;DHT22;6249;52.128;9.986;2023-05-07T02:32:58;11.50;99.90
12370;DHT22;6249;52.128;9.986;2023-05-07T02:36:19;11.20;99.90
12370;DHT22;6249;52.128;9.986;2023-05-07T02:39:39;11.30;99.90
12370;DHT22;6249;52.128;9.986;2023-05-07T02:43:05;11.30;99.90
12370;DHT22;6249;52.128;9.986;2023-05-07T02:46:26;11.40;99.90
12370;DHT22;6249;52.128;9.986;2023-05-07T02:49:49;11.30;99.90
12370;DHT22;6249;52.128;9.986;2023-05-07T02:53:09;11.20;99.90
12370;DHT22;6249;52.128;9.986;2023-05-07T02:56:30;11.30;99.90
12370;DHT22;6249;52.128;9.986;2023-05-07T02:59:50;11.40;99.90
12370;DHT22;6249;52.128;9.986;2023-05-07T03:03:13;11.50;99.90
12370;DHT22;6249;52.128;9.986;2023-05-07T03:06:34;11.40;99.90
12370;DHT22;6249;52.128;9.986;2023-05-07T03:09:55;11.20;99.90
12370;DHT22;6249;52.128;9.986;2023-05-07T03:13:18;11.20;99.90
12370;DHT22;6249;52.128;9.986;2023-05-07T03:16:41;11.30;99.90
12370;DHT22;6249;52.128;9.986;2023-05-07T03:20:04;11.20;99.90
12370;DHT22;6249;52.128;9.986;2023-05-07T03:23:25;11.10;99.90
12370;DHT22;6249;52.128;9.986;2023-05-07T03:26:45;11.20;99.90
12370;DHT22;6249;52.128;9.986;2023-05-07T03:30:08;11.20;99.90
12370;DHT22;6249;52.128;9.986;2023-05-07T03:33:29;11.10;99.90
12370;DHT22;6249;52.128;9.986;2023-05-07T03:36:50;11.10;99.90
12370;DHT22;6249;52.128;9.986;2023-05-07T03:40:11;11.10;99.90
12370;DHT22;6249;52.128;9.986;2023-05-07T03:43:32;11.10;99.90
12370;DHT22;6249;52.128;9.986;2023-05-07T03:46:55;11.20;99.90
12370;DHT22;6249;52.128;9.986;2023-05-07T03:50:16;11.20;99.90
12370;DHT22;6249;52.128;9.986;2023-05-07T03:53:36;11.00;99.90
12370;DHT22;6249;52.128;9.986;2023-05-07T03:56:57;11.10;99.90
12370;DHT22;6249;52.128;9.986;2023-05-07T04:00:17;11.10;99.90
12370;DHT22;6249;52.128;9.986;2023-05-07T04:03:40;11.10;99.90
12370;DHT22;6249;52.128;9.986;2023-05-07T04:07:01;11.20;99.90
12370;DHT22;6249;52.128;9.986;2023-05-07T04:10:23;11.10;99.90
12370;DHT22;6249;52.128;9.986;2023-05-07T04:13:44;11.00;99.90
12370;DHT22;6249;52.128;9.986;2023-05-07T04:17:05;11.00;99.90
12370;DHT22;6249;52.128;9.986;2023-05-07T04:20:29;11.00;99.90
12370;DHT22;6249;52.128;9.986;2023-05-07T04:23:50;11.10;99.90
12370;DHT22;6249;52.128;9.986;2023-05-07T04:27:10;11.10;99.90
12370;DHT22;6249;52.128;9.986;2023-05-07T04:30:33;11.20;99.90
12370;DHT22;6249;52.128;9.986;2023-05-07T04:33:54;11.10;99.90
12370;DHT22;6249;52.128;9.986;2023-05-07T04:37:19;11.20;99.90
12370;DHT22;6249;52.128;9.986;2023-05-07T04:40:40;11.20;99.90
12370;DHT22;6249;52.128;9.986;2023-05-07T04:44:03;11.00;99.90
12370;DHT22;6249;52.128;9.986;2023-05-07T04:47:24;10.90;99.90
12370;DHT22;6249;52.128;9.986;2023-05-07T04:50:47;10.80;99.90
12370;DHT22;6249;52.128;9.986;2023-05-07T04:54:08;11.00;99.90
12370;DHT22;6249;52.128;9.986;2023-05-07T04:57:31;10.90;99.90
12370;DHT22;6249;52.128;9.986;2023-05-07T05:00:52;10.80;99.90
12370;DHT22;6249;52.128;9.986;2023-05-07T05:04:12;10.90;99.90
12370;DHT22;6249;52.128;9.986;2023-05-07T05:07:36;10.90;99.90
12370;DHT22;6249;52.128;9.986;2023-05-07T05:10:56;10.80;99.90
12370;DHT22;6249;52.128;9.986;2023-05-07T05:14:19;10.90;99.90
12370;DHT22;6249;52.128;9.986;2023-05-07T05:17:40;10.90;99.90
12370;DHT22;6249;52.128;9.986;2023-05-07T05:21:03;10.90;99.90
12370;DHT22;6249;52.128;9.986;2023-05-07T05:24:28;11.10;99.90
12370;DHT22;6249;52.128;9.986;2023-05-07T05:27:49;11.00;99.90
12370;DHT22;6249;52.128;9.986;2023-05-07T05:31:12;11.10;99.90
12370;DHT22;6249;52.128;9.986;2023-05-07T05:34:34;11.00;99.90
12370;DHT22;6249;52.128;9.986;2023-05-07T05:37:55;10.90;99.90
12370;DHT22;6249;52.128;9.986;2023-05-07T05:41:17;10.90;99.90
12370;DHT22;6249;52.128;9.986;2023-05-07T05:44:38;10.90;99.90
12370;DHT22;6249;52.128;9.986;2023-05-07T05:47:58;10.90;99.90
12370;DHT22;6249;52.128;9.986;2023-05-07T05:51:21;10.90;99.90
12370;DHT22;6249;52.128;9.986;2023-05-07T05:54:41;11.00;99.90
12370;DHT22;6249;52.128;9.986;2023-05-07T05:58:04;11.00;99.90
12370;DHT22;6249;52.128;9.986;2023-05-07T06:01:27;11.10;99.90
12370;DHT22;6249;52.128;9.986;2023-05-07T06:04:48;11.20;99.90
12370;DHT22;6249;52.128;9.986;2023-05-07T06:08:09;11.20;99.90
12370;DHT22;6249;52.128;9.986;2023-05-07T06:11:29;11.30;99.90
12370;DHT22;6249;52.128;9.986;2023-05-07T06:14:52;11.40;99.90
12370;DHT22;6249;52.128;9.986;2023-05-07T06:18:15;11.50;99.90
12370;DHT22;6249;52.128;9.986;2023-05-07T06:21:35;11.60;99.90
12370;DHT22;6249;52.128;9.986;2023-05-07T06:24:56;11.70;99.90
12370;DHT22;6249;52.128;9.986;2023-05-07T06:28:21;11.90;99.90
12370;DHT22;6249;52.128;9.986;2023-05-07T06:31:42;11.70;99.90
12370;DHT22;6249;52.128;9.986;2023-05-07T06:35:03;11.80;99.90
12370;DHT22;6249;52.128;9.986;2023-05-07T06:38:23;11.90;99.90
12370;DHT22;6249;52.128;9.986;2023-05-07T06:41:46;11.90;99.90
12370;DHT22;6249;52.128;9.986;2023-05-07T06:45:08;11.90;99.90
12370;DHT22;6249;52.128;9.986;2023-05-07T06:48:31;12.00;99.90
12370;DHT22;6249;52.128;9.986;2023-05-07T06:51:51;12.20;99.90
12370;DHT22;6249;52.128;9.986;2023-05-07T06:55:12;12.20;99.90
12370;DHT22;6249;52.128;9.986;2023-05-07T06:58:33;12.20;99.90
12370;DHT22;6249;52.128;9.986;2023-05-07T07:01:55;12.40;99.90
12370;DHT22;6249;52.128;9.986;2023-05-07T07:05:18;12.70;99.90
12370;DHT22;6249;52.128;9.986;2023-05-07T07:08:43;12.70;99.90
12370;DHT22;6249;52.128;9.986;2023-05-07T07:12:04;12.90;99.90
12370;DHT22;6249;52.128;9.986;2023-05-07T07:15:25;13.00;99.90
12370;DHT22;6249;52.128;9.986;2023-05-07T07:18:50;13.10;99.90
12370;DHT22;6249;52.128;9.986;2023-05-07T07:22:11;13.10;99.90
12370;DHT22;6249;52.128;9.986;2023-05-07T07:25:32;12.90;99.90
12370;DHT22;6249;52.128;9.986;2023-05-07T07:28:53;12.90;99.90
12370;DHT22;6249;52.128;9.986;2023-05-07T07:32:13;13.20;99.90
12370;DHT22;6249;52.128;9.986;2023-05-07T07:35:34;13.10;99.90
12370;DHT22;6249;52.128;9.986;2023-05-07T07:38:55;13.00;99.90
12370;DHT22;6249;52.128;9.986;2023-05-07T07:42:16;13.10;99.90
12370;DHT22;6249;52.128;9.986;2023-05-07T07:45:39;13.00;99.90
12370;DHT22;6249;52.128;9.986;2023-05-07T07:49:02;13.20;99.90
12370;DHT22;6249;52.128;9.986;2023-05-07T07:52:23;13.30;99.90
12370;DHT22;6249;52.128;9.986;2023-05-07T07:55:44;13.30;99.90
12370;DHT22;6249;52.128;9.986;2023-05-07T07:59:04;13.30;99.90
12370;DHT22;6249;52.128;9.986;2023-05-07T08:02:25;13.20;99.90
12370;DHT22;6249;52.128;9.986;2023-05-07T08:05:45;13.30;99.90
12370;DHT22;6249;52.128;9.986;2023-05-07T08:09:06;13.30;99.90
12370;DHT22;6249;52.128;9.986;2023-05-07T08:12:27;13.30;99.90
12370;DHT22;6249;52.128;9.986;2023-05-07T08:15:47;13.30;99.90
12370;DHT22;6249;52.128;9.986;2023-05-07T08:19:08;13.50;99.90
12370;DHT22;6249;52.128;9.986;2023-05-07T08:22:28;13.60;99.90
12370;DHT22;6249;52.128;9.986;2023-05-07T08:25:51;13.60;99.90
12370;DHT22;6249;52.128;9.986;2023-05-07T08:29:12;13.70;99.90
12370;DHT22;6249;52.128;9.986;2023-05-07T08:32:33;13.70;99.90
12370;DHT22;6249;52.128;9.986;2023-05-07T08:35:53;13.70;99.90
12370;DHT22;6249;52.128;9.986;2023-05-07T08:39:17;13.60;99.90
12370;DHT22;6249;52.128;9.986;2023-05-07T08:42:43;13.60;99.90
12370;DHT22;6249;52.128;9.986;2023-05-07T08:46:07;13.80;99.90
12370;DHT22;6249;52.128;9.986;2023-05-07T08:49:31;13.80;99.90
12370;DHT22;6249;52.128;9.986;2023-05-07T08:52:53;13.80;99.90
12370;DHT22;6249;52.128;9.986;2023-05-07T08:56:17;13.70;99.90
12370;DHT22;6249;52.128;9.986;2023-05-07T08:59:40;13.80;99.90
12370;DHT22;6249;52.128;9.986;2023-05-07T09:03:02;13.80;99.90
12370;DHT22;6249;52.128;9.986;2023-05-07T09:06:23;13.80;99.90
12370;DHT22;6249;52.128;9.986;2023-05-07T09:09:44;13.80;99.90
12370;DHT22;6249;52.128;9.986;2023-05-07T09:13:05;13.70;99.90
12370;DHT22;6249;52.128;9.986;2023-05-07T09:16:28;13.90;99.90
12370;DHT22;6249;52.128;9.986;2023-05-07T09:19:50;13.90;99.90
12370;DHT22;6249;52.128;9.986;2023-05-07T09:23:11;13.90;99.90
12370;DHT22;6249;52.128;9.986;2023-05-07T09:26:31;14.00;99.90
12370;DHT22;6249;52.128;9.986;2023-05-07T09:29:53;14.20;99.90
12370;DHT22;6249;52.128;9.986;2023-05-07T09:33:16;14.50;99.90
12370;DHT22;6249;52.128;9.986;2023-05-07T09:36:37;14.50;99.90
12370;DHT22;6249;52.128;9.986;2023-05-07T09:39:58;14.50;99.90
12370;DHT22;6249;52.128;9.986;2023-05-07T09:43:18;14.60;99.90
12370;DHT22;6249;52.128;9.986;2023-05-07T09:46:44;14.40;99.90
12370;DHT22;6249;52.128;9.986;2023-05-07T09:50:10;14.30;99.90
12370;DHT22;6249;52.128;9.986;2023-05-07T09:53:34;14.30;99.90
12370;DHT22;6249;52.128;9.986;2023-05-07T09:56:55;14.30;99.90
12370;DHT22;6249;52.128;9.986;2023-05-07T10:00:18;14.20;99.90
12370;DHT22;6249;52.128;9.986;2023-05-07T10:03:43;14.30;99.90
12370;DHT22;6249;52.128;9.986;2023-05-07T10:07:05;14.40;99.90
12370;DHT22;6249;52.128;9.986;2023-05-07T10:10:30;14.50;99.90
12370;DHT22;6249;52.128;9.986;2023-05-07T10:13:52;14.60;99.90
12370;DHT22;6249;52.128;9.986;2023-05-07T10:17:13;14.60;99.90
12370;DHT22;6249;52.128;9.986;2023-05-07T10:20:36;14.50;99.90
12370;DHT22;6249;52.128;9.986;2023-05-07T10:24:08;14.50;99.90
12370;DHT22;6249;52.128;9.986;2023-05-07T10:27:34;14.50;99.90
12370;DHT22;6249;52.128;9.986;2023-05-07T10:34:58;14.70;99.90
12370;DHT22;6249;52.128;9.986;2023-05-07T10:38:20;14.80;99.90
12370;DHT22;6249;52.128;9.986;2023-05-07T10:41:41;14.90;99.90
12370;DHT22;6249;52.128;9.986;2023-05-07T10:45:14;15.00;99.90
12370;DHT22;6249;52.128;9.986;2023-05-07T10:52:30;15.60;99.90
12370;DHT22;6249;52.128;9.986;2023-05-07T10:59:33;16.10;99.90
12370;DHT22;6249;52.128;9.986;2023-05-07T11:06:25;16.80;99.90
12370;DHT22;6249;52.128;9.986;2023-05-07T11:13:14;17.50;99.90
12370;DHT22;6249;52.128;9.986;2023-05-07T11:16:42;17.90;99.90
12370;DHT22;6249;52.128;9.986;2023-05-07T11:20:06;18.10;99.90
12370;DHT22;6249;52.128;9.986;2023-05-07T11:27:00;17.90;99.90
12370;DHT22;6249;52.128;9.986;2023-05-07T11:30:23;18.00;99.90
12370;DHT22;6249;52.128;9.986;2023-05-07T11:33:44;18.30;99.90
12370;DHT22;6249;52.128;9.986;2023-05-07T11:37:05;18.80;99.90
12370;DHT22;6249;52.128;9.986;2023-05-07T11:40:26;19.10;99.90
12370;DHT22;6249;52.128;9.986;2023-05-07T11:43:57;19.20;99.90
12370;DHT22;6249;52.128;9.986;2023-05-07T11:47:18;18.90;99.90
12370;DHT22;6249;52.128;9.986;2023-05-07T11:50:54;18.90;99.90
12370;DHT22;6249;52.128;9.986;2023-05-07T11:54:18;18.40;99.90
12370;DHT22;6249;52.128;9.986;2023-05-07T11:57:42;18.20;99.90
12370;DHT22;6249;52.128;9.986;2023-05-07T12:01:08;18.30;99.90
12370;DHT22;6249;52.128;9.986;2023-05-07T12:04:31;18.20;99.90
12370;DHT22;6249;52.128;9.986;2023-05-07T12:07:56;18.10;99.90
12370;DHT22;6249;52.128;9.986;2023-05-07T12:11:23;18.10;99.90
12370;DHT22;6249;52.128;9.986;2023-05-07T12:14:46;18.40;99.90
12370;DHT22;6249;52.128;9.986;2023-05-07T12:18:11;18.40;99.90
12370;DHT22;6249;52.128;9.986;2023-05-07T12:21:33;18.50;99.90
12370;DHT22;6249;52.128;9.986;2023-05-07T12:24:57;18.40;99.90
12370;DHT22;6249;52.128;9.986;2023-05-07T12:28:19;18.60;99.90
12370;DHT22;6249;52.128;9.986;2023-05-07T12:31:43;18.40;99.90
12370;DHT22;6249;52.128;9.986;2023-05-07T12:35:05;18.40;99.90
12370;DHT22;6249;52.128;9.986;2023-05-07T12:38:34;18.60;99.90
12370;DHT22;6249;52.128;9.986;2023-05-07T12:41:56;18.70;99.90
12370;DHT22;6249;52.128;9.986;2023-05-07T12:45:18;18.60;99.90
12370;DHT22;6249;52.128;9.986;2023-05-07T12:48:44;18.80;99.80
12370;DHT22;6249;52.128;9.986;2023-05-07T12:52:08;18.90;99.90
12370;DHT22;6249;52.128;9.986;2023-05-07T12:55:31;19.30;99.90
12370;DHT22;6249;52.128;9.986;2023-05-07T12:58:57;19.60;99.00
12370;DHT22;6249;52.128;9.986;2023-05-07T13:02:18;19.50;98.40
12370;DHT22;6249;52.128;9.986;2023-05-07T13:05:38;19.70;99.40
12370;DHT22;6249;52.128;9.986;2023-05-07T13:08:59;20.40;97.80
12370;DHT22;6249;52.128;9.986;2023-05-07T13:12:20;21.30;96.50
12370;DHT22;6249;52.128;9.986;2023-05-07T13:15:40;21.80;95.80
12370;DHT22;6249;52.128;9.986;2023-05-07T13:19:01;21.40;94.40
12370;DHT22;6249;52.128;9.986;2023-05-07T13:22:24;20.80;95.20
12370;DHT22;6249;52.128;9.986;2023-05-07T13:25:45;20.90;94.70
12370;DHT22;6249;52.128;9.986;2023-05-07T13:29:07;20.70;96.30
12370;DHT22;6249;52.128;9.986;2023-05-07T13:32:28;20.90;95.30
12370;DHT22;6249;52.128;9.986;2023-05-07T13:35:50;21.10;94.80
12370;DHT22;6249;52.128;9.986;2023-05-07T13:39:10;22.10;94.60
12370;DHT22;6249;52.128;9.986;2023-05-07T13:42:31;22.80;93.10
12370;DHT22;6249;52.128;9.986;2023-05-07T13:45:59;22.80;92.00
12370;DHT22;6249;52.128;9.986;2023-05-07T13:49:20;22.20;92.70
12370;DHT22;6249;52.128;9.986;2023-05-07T13:52:45;22.10;93.10
12370;DHT22;6249;52.128;9.986;2023-05-07T13:56:11;22.40;92.90
12370;DHT22;6249;52.128;9.986;2023-05-07T13:59:34;22.60;93.10
12370;DHT22;6249;52.128;9.986;2023-05-07T14:02:57;23.60;91.00
12370;DHT22;6249;52.128;9.986;2023-05-07T14:06:23;24.30;91.20
12370;DHT22;6249;52.128;9.986;2023-05-07T14:09:46;24.50;89.10
12370;DHT22;6249;52.128;9.986;2023-05-07T14:13:06;24.40;88.90
12370;DHT22;6249;52.128;9.986;2023-05-07T14:16:27;24.10;90.00
12370;DHT22;6249;52.128;9.986;2023-05-07T14:19:47;23.70;89.00
12370;DHT22;6249;52.128;9.986;2023-05-07T14:23:12;23.60;90.40
12370;DHT22;6249;52.128;9.986;2023-05-07T14:26:33;24.00;90.00
12370;DHT22;6249;52.128;9.986;2023-05-07T14:29:54;24.20;89.40
12370;DHT22;6249;52.128;9.986;2023-05-07T14:33:19;24.40;85.70
12370;DHT22;6249;52.128;9.986;2023-05-07T14:36:40;24.30;88.50
12370;DHT22;6249;52.128;9.986;2023-05-07T14:40:01;24.50;85.20
12370;DHT22;6249;52.128;9.986;2023-05-07T14:43:22;25.00;84.80
12370;DHT22;6249;52.128;9.986;2023-05-07T14:46:42;25.30;83.60
12370;DHT22;6249;52.128;9.986;2023-05-07T14:50:05;25.70;82.80
12370;DHT22;6249;52.128;9.986;2023-05-07T14:53:26;25.70;80.30
12370;DHT22;6249;52.128;9.986;2023-05-07T14:56:46;25.80;79.70
12370;DHT22;6249;52.128;9.986;2023-05-07T15:00:08;25.90;80.30
12370;DHT22;6249;52.128;9.986;2023-05-07T15:03:31;25.90;80.70
12370;DHT22;6249;52.128;9.986;2023-05-07T15:06:52;26.50;78.60
12370;DHT22;6249;52.128;9.986;2023-05-07T15:10:16;27.00;76.40
12370;DHT22;6249;52.128;9.986;2023-05-07T15:13:39;26.40;75.10
12370;DHT22;6249;52.128;9.986;2023-05-07T15:17:00;25.10;77.00
12370;DHT22;6249;52.128;9.986;2023-05-07T15:20:20;25.00;80.60
12370;DHT22;6249;52.128;9.986;2023-05-07T15:23:43;24.90;78.90
12370;DHT22;6249;52.128;9.986;2023-05-07T15:27:04;25.10;80.20
12370;DHT22;6249;52.128;9.986;2023-05-07T15:30:27;25.70;82.00
12370;DHT22;6249;52.128;9.986;2023-05-07T15:33:50;26.00;77.80
12370;DHT22;6249;52.128;9.986;2023-05-07T15:37:16;26.00;76.40
12370;DHT22;6249;52.128;9.986;2023-05-07T15:40:39;26.10;76.50
12370;DHT22;6249;52.128;9.986;2023-05-07T15:44:03;25.80;75.40
12370;DHT22;6249;52.128;9.986;2023-05-07T15:47:24;24.80;78.10
12370;DHT22;6249;52.128;9.986;2023-05-07T15:50:45;24.10;79.60
12370;DHT22;6249;52.128;9.986;2023-05-07T15:54:08;23.60;80.70
12370;DHT22;6249;52.128;9.986;2023-05-07T15:57:28;23.00;84.00
12370;DHT22;6249;52.128;9.986;2023-05-07T16:00:52;22.50;85.20
12370;DHT22;6249;52.128;9.986;2023-05-07T16:04:12;22.20;86.20
12370;DHT22;6249;52.128;9.986;2023-05-07T16:07:36;21.80;87.90
12370;DHT22;6249;52.128;9.986;2023-05-07T16:10:58;21.10;89.10
12370;DHT22;6249;52.128;9.986;2023-05-07T16:14:22;20.50;90.80
12370;DHT22;6249;52.128;9.986;2023-05-07T16:17:46;20.00;91.70
12370;DHT22;6249;52.128;9.986;2023-05-07T16:21:10;19.60;92.80
12370;DHT22;6249;52.128;9.986;2023-05-07T16:24:31;19.10;94.20
12370;DHT22;6249;52.128;9.986;2023-05-07T16:27:55;18.80;95.30
12370;DHT22;6249;52.128;9.986;2023-05-07T16:31:21;18.50;95.40
12370;DHT22;6249;52.128;9.986;2023-05-07T16:34:41;18.00;96.70
12370;DHT22;6249;52.128;9.986;2023-05-07T16:38:02;17.80;98.50
12370;DHT22;6249;52.128;9.986;2023-05-07T16:41:31;17.90;98.00
12370;DHT22;6249;52.128;9.986;2023-05-07T16:44:52;17.60;98.50
12370;DHT22;6249;52.128;9.986;2023-05-07T16:48:18;17.50;99.60
12370;DHT22;6249;52.128;9.986;2023-05-07T16:51:39;17.50;99.40
12370;DHT22;6249;52.128;9.986;2023-05-07T16:55:02;17.50;99.70
12370;DHT22;6249;52.128;9.986;2023-05-07T16:58:23;17.40;99.60
12370;DHT22;6249;52.128;9.986;2023-05-07T17:01:44;17.30;99.70
12370;DHT22;6249;52.128;9.986;2023-05-07T17:05:05;17.00;99.70
12370;DHT22;6249;52.128;9.986;2023-05-07T17:08:25;16.60;99.90
12370;DHT22;6249;52.128;9.986;2023-05-07T17:11:46;16.40;99.90
12370;DHT22;6249;52.128;9.986;2023-05-07T17:15:07;16.40;99.90
12370;DHT22;6249;52.128;9.986;2023-05-07T17:18:30;16.20;99.90
12370;DHT22;6249;52.128;9.986;2023-05-07T17:21:51;16.10;99.90
12370;DHT22;6249;52.128;9.986;2023-05-07T17:25:11;15.90;99.90
12370;DHT22;6249;52.128;9.986;2023-05-07T17:28:34;15.90;99.90
12370;DHT22;6249;52.128;9.986;2023-05-07T17:31:55;15.70;99.90
12370;DHT22;6249;52.128;9.986;2023-05-07T17:35:18;15.80;99.90
12370;DHT22;6249;52.128;9.986;2023-05-07T17:38:39;15.80;99.90
12370;DHT22;6249;52.128;9.986;2023-05-07T17:42:00;15.80;99.90
12370;DHT22;6249;52.128;9.986;2023-05-07T17:45:21;15.80;99.90
12370;DHT22;6249;52.128;9.986;2023-05-07T17:48:42;15.70;99.90
12370;DHT22;6249;52.128;9.986;2023-05-07T17:52:03;15.60;99.90
12370;DHT22;6249;52.128;9.986;2023-05-07T17:55:25;15.40;99.90
12370;DHT22;6249;52.128;9.986;2023-05-07T17:58:46;15.30;99.90
12370;DHT22;6249;52.128;9.986;2023-05-07T18:02:07;15.10;99.90
12370;DHT22;6249;52.128;9.986;2023-05-07T18:05:28;15.10;99.90
12370;DHT22;6249;52.128;9.986;2023-05-07T18:08:49;14.70;99.90
12370;DHT22;6249;52.128;9.986;2023-05-07T18:12:13;14.40;99.90
12370;DHT22;6249;52.128;9.986;2023-05-07T18:15:34;14.20;99.90
12370;DHT22;6249;52.128;9.986;2023-05-07T18:18:54;14.10;99.90
12370;DHT22;6249;52.128;9.986;2023-05-07T18:22:15;13.90;99.90
12370;DHT22;6249;52.128;9.986;2023-05-07T18:25:36;13.80;99.90
12370;DHT22;6249;52.128;9.986;2023-05-07T18:28:56;13.80;99.90
12370;DHT22;6249;52.128;9.986;2023-05-07T18:32:19;13.70;99.90
12370;DHT22;6249;52.128;9.986;2023-05-07T18:35:41;13.60;99.90
12370;DHT22;6249;52.128;9.986;2023-05-07T18:39:01;13.30;99.90
12370;DHT22;6249;52.128;9.986;2023-05-07T18:42:23;13.30;99.90
12370;DHT22;6249;52.128;9.986;2023-05-07T18:45:47;13.30;99.90
12370;DHT22;6249;52.128;9.986;2023-05-07T18:49:07;13.20;99.90
12370;DHT22;6249;52.128;9.986;2023-05-07T18:52:28;13.00;99.90
12370;DHT22;6249;52.128;9.986;2023-05-07T18:55:50;13.00;99.90
12370;DHT22;6249;52.128;9.986;2023-05-07T18:59:13;12.90;99.90
12370;DHT22;6249;52.128;9.986;2023-05-07T19:02:34;12.90;99.90
12370;DHT22;6249;52.128;9.986;2023-05-07T19:05:54;12.80;99.90
12370;DHT22;6249;52.128;9.986;2023-05-07T19:09:15;12.70;99.90
12370;DHT22;6249;52.128;9.986;2023-05-07T19:12:36;12.60;99.90
12370;DHT22;6249;52.128;9.986;2023-05-07T19:15:56;12.60;99.90
12370;DHT22;6249;52.128;9.986;2023-05-07T19:19:17;12.70;99.90
12370;DHT22;6249;52.128;9.986;2023-05-07T19:22:38;12.50;99.90
12370;DHT22;6249;52.128;9.986;2023-05-07T19:26:01;12.50;99.90
12370;DHT22;6249;52.128;9.986;2023-05-07T19:29:22;12.40;99.90
12370;DHT22;6249;52.128;9.986;2023-05-07T19:32:42;12.30;99.90
12370;DHT22;6249;52.128;9.986;2023-05-07T19:36:03;12.30;99.90
12370;DHT22;6249;52.128;9.986;2023-05-07T19:39:24;12.30;99.90
12370;DHT22;6249;52.128;9.986;2023-05-07T19:42:45;12.30;99.90
12370;DHT22;6249;52.128;9.986;2023-05-07T19:46:09;12.30;99.90
12370;DHT22;6249;52.128;9.986;2023-05-07T19:49:29;12.30;99.90
12370;DHT22;6249;52.128;9.986;2023-05-07T19:52:52;12.20;99.90
12370;DHT22;6249;52.128;9.986;2023-05-07T19:56:15;12.10;99.90
12370;DHT22;6249;52.128;9.986;2023-05-07T19:59:36;12.10;99.90
12370;DHT22;6249;52.128;9.986;2023-05-07T20:02:59;12.10;99.90
12370;DHT22;6249;52.128;9.986;2023-05-07T20:06:20;12.10;99.90
12370;DHT22;6249;52.128;9.986;2023-05-07T20:09:45;12.10;99.90
12370;DHT22;6249;52.128;9.986;2023-05-07T20:13:08;12.00;99.90
12370;DHT22;6249;52.128;9.986;2023-05-07T20:16:31;11.90;99.90
12370;DHT22;6249;52.128;9.986;2023-05-07T20:19:53;12.00;99.90
12370;DHT22;6249;52.128;9.986;2023-05-07T20:23:14;12.00;99.90
12370;DHT22;6249;52.128;9.986;2023-05-07T20:26:39;11.90;99.90
12370;DHT22;6249;52.128;9.986;2023-05-07T20:30:00;11.80;99.90
12370;DHT22;6249;52.128;9.986;2023-05-07T20:33:21;11.80;99.90
12370;DHT22;6249;52.128;9.986;2023-05-07T20:36:44;11.70;99.90
12370;DHT22;6249;52.128;9.986;2023-05-07T20:40:07;11.70;99.90
12370;DHT22;6249;52.128;9.986;2023-05-07T20:43:31;11.70;99.90
12370;DHT22;6249;52.128;9.986;2023-05-07T20:46:51;11.80;99.90
12370;DHT22;6249;52.128;9.986;2023-05-07T20:50:12;11.80;99.90
12370;DHT22;6249;52.128;9.986;2023-05-07T20:53:35;11.70;99.90
12370;DHT22;6249;52.128;9.986;2023-05-07T20:56:56;11.70;99.90
12370;DHT22;6249;52.128;9.986;2023-05-07T21:00:19;11.70;99.90
12370;DHT22;6249;52.128;9.986;2023-05-07T21:03:40;11.50;99.90
12370;DHT22;6249;52.128;9.986;2023-05-07T21:07:06;11.50;99.90
12370;DHT22;6249;52.128;9.986;2023-05-07T21:10:29;11.50;99.90
12370;DHT22;6249;52.128;9.986;2023-05-07T21:13:50;11.50;99.90
12370;DHT22;6249;52.128;9.986;2023-05-07T21:17:11;11.50;99.90
12370;DHT22;6249;52.128;9.986;2023-05-07T21:20:34;11.40;99.90
12370;DHT22;6249;52.128;9.986;2023-05-07T21:23:55;11.50;99.90
12370;DHT22;6249;52.128;9.986;2023-05-07T21:27:15;11.40;99.90
12370;DHT22;6249;52.128;9.986;2023-05-07T21:30:36;11.40;99.90
12370;DHT22;6249;52.128;9.986;2023-05-07T21:34:01;11.40;99.90
12370;DHT22;6249;52.128;9.986;2023-05-07T21:37:22;11.20;99.90
12370;DHT22;6249;52.128;9.986;2023-05-07T21:40:43;11.20;99.90
12370;DHT22;6249;52.128;9.986;2023-05-07T21:44:06;11.10;99.90
12370;DHT22;6249;52.128;9.986;2023-05-07T21:47:27;11.10;99.90
12370;DHT22;6249;52.128;9.986;2023-05-07T21:50:57;11.00;99.90
12370;DHT22;6249;52.128;9.986;2023-05-07T21:54:18;11.10;99.90
12370;DHT22;6249;52.128;9.986;2023-05-07T21:57:41;11.10;99.90